createdAt,value
2023-05-19T00:00:13.775Z,51.179359
2023-05-19T00:01:13.773Z,51.179394
2023-05-19T00:02:13.786Z,51.179298
2023-05-19T00:03:13.945Z,51.179302
2023-05-19T00:04:13.703Z,51.179291
2023-05-19T00:05:13.698Z,51.179283
2023-05-19T00:06:13.894Z,51.179298
2023-05-19T00:07:13.679Z,51.179287
2023-05-19T00:08:13.737Z,51.179279
2023-05-19T00:09:13.654Z,51.179279
2023-05-19T00:10:13.656Z,51.179264
2023-05-19T00:11:14.636Z,51.179268
2023-05-19T00:12:13.665Z,51.179283
2023-05-19T00:13:13.634Z,51.179287
2023-05-19T00:14:13.652Z,51.179268
2023-05-19T00:15:13.610Z,51.179234
2023-05-19T00:16:13.637Z,51.179268
2023-05-19T00:17:13.711Z,51.179272
2023-05-19T00:18:13.711Z,51.179283
2023-05-19T00:19:13.621Z,51.179256
2023-05-19T00:20:13.527Z,51.179260
2023-05-19T00:21:13.544Z,51.179306
2023-05-19T00:22:13.493Z,51.179306
2023-05-19T00:23:13.529Z,51.179333
2023-05-19T00:24:13.507Z,51.179317
2023-05-19T00:25:13.518Z,51.179287
2023-05-19T00:26:13.480Z,51.179306
2023-05-19T00:27:13.459Z,51.179317
2023-05-19T00:28:13.496Z,51.179329
2023-05-19T00:29:13.471Z,51.179329
2023-05-19T00:30:13.435Z,51.179314
2023-05-19T00:31:13.463Z,51.179298
2023-05-19T00:32:13.538Z,51.179306
2023-05-19T00:33:13.483Z,51.179298
2023-05-19T00:34:13.451Z,51.179287
2023-05-19T00:35:13.390Z,51.179249
2023-05-19T00:36:13.374Z,51.179234
2023-05-19T00:37:13.354Z,51.179256
2023-05-19T00:38:13.374Z,51.179272
2023-05-19T00:39:13.364Z,51.179268
2023-05-19T00:40:13.357Z,51.179276
2023-05-19T00:41:13.329Z,51.179276
2023-05-19T00:42:13.328Z,51.179276
2023-05-19T00:43:13.311Z,51.179245
2023-05-19T00:44:13.269Z,51.179241
2023-05-19T00:45:13.321Z,51.179276
2023-05-19T00:46:13.349Z,51.179291
2023-05-19T00:47:13.266Z,51.179283
2023-05-19T00:48:13.299Z,51.179272
2023-05-19T00:49:13.264Z,51.179295
2023-05-19T00:50:13.218Z,51.179268
2023-05-19T00:51:13.248Z,51.179253
2023-05-19T00:52:13.268Z,51.179249
2023-05-19T00:53:13.193Z,51.179245
2023-05-19T00:54:13.237Z,51.179241
2023-05-19T00:55:13.216Z,51.179245
2023-05-19T00:56:13.141Z,51.179256
2023-05-19T00:57:13.165Z,51.179256
2023-05-19T00:58:13.155Z,51.179249
2023-05-19T00:59:13.134Z,51.179211
2023-05-19T01:00:13.119Z,51.179218
2023-05-19T01:01:13.205Z,51.179237
2023-05-19T01:02:13.084Z,51.179237
2023-05-19T01:03:13.327Z,51.179218
2023-05-19T01:04:13.097Z,51.179245
2023-05-19T01:05:13.134Z,51.179253
2023-05-19T01:06:13.048Z,51.179234
2023-05-19T01:07:13.042Z,51.179256
2023-05-19T01:08:13.056Z,51.179279
2023-05-19T01:09:14.030Z,51.179276
2023-05-19T01:10:13.095Z,51.179264
2023-05-19T01:11:13.009Z,51.179256
2023-05-19T01:12:13.014Z,51.179260
2023-05-19T01:13:13.001Z,51.179234
2023-05-19T01:14:12.944Z,51.179234
2023-05-19T01:15:12.983Z,51.179214
2023-05-19T01:16:13.145Z,51.179203
2023-05-19T01:17:12.985Z,51.179237
2023-05-19T01:18:12.986Z,51.179291
2023-05-19T01:19:12.951Z,51.179264
2023-05-19T01:20:12.900Z,51.179226
2023-05-19T01:21:12.915Z,51.179165
2023-05-19T01:22:13.002Z,51.179214
2023-05-19T01:23:12.906Z,51.179203
2023-05-19T01:24:12.857Z,51.179237
2023-05-19T01:25:12.869Z,51.179218
2023-05-19T01:26:12.842Z,51.179211
2023-05-19T01:27:12.866Z,51.179230
2023-05-19T01:28:13.921Z,51.179253
2023-05-19T01:29:12.814Z,51.179310
2023-05-19T01:30:12.789Z,51.179253
2023-05-19T01:31:12.794Z,51.179241
2023-05-19T01:32:12.867Z,51.179226
2023-05-19T01:33:12.745Z,51.179157
2023-05-19T01:34:12.811Z,51.179138
2023-05-19T01:35:12.807Z,51.179192
2023-05-19T01:36:12.805Z,51.179279
2023-05-19T01:37:12.748Z,51.179306
2023-05-19T01:38:12.751Z,51.179253
2023-05-19T01:39:12.753Z,51.179260
2023-05-19T01:40:12.684Z,51.179234
2023-05-19T01:41:12.702Z,51.179234
2023-05-19T01:42:12.717Z,51.179188
2023-05-19T01:43:12.700Z,51.179180
2023-05-19T01:44:12.645Z,51.179207
2023-05-19T01:45:12.653Z,51.179214
2023-05-19T01:46:12.754Z,51.179211
2023-05-19T01:47:12.642Z,51.179188
2023-05-19T01:48:12.675Z,51.179249
2023-05-19T01:49:12.637Z,51.179291
2023-05-19T01:50:12.669Z,51.179306
2023-05-19T01:51:12.580Z,51.179329
2023-05-19T01:52:12.610Z,51.179295
2023-05-19T01:53:12.564Z,51.179272
2023-05-19T01:54:12.579Z,51.179241
2023-05-19T01:55:12.578Z,51.179226
2023-05-19T01:56:12.546Z,51.179234
2023-05-19T01:57:12.538Z,51.179249
2023-05-19T01:58:12.532Z,51.179283
2023-05-19T01:59:12.501Z,51.179253
2023-05-19T02:00:12.486Z,51.179276
2023-05-19T02:01:12.519Z,51.179279
2023-05-19T02:02:12.471Z,51.179264
2023-05-19T02:03:12.462Z,51.179245
2023-05-19T02:04:12.508Z,51.179180
2023-05-19T02:05:12.444Z,51.179188
2023-05-19T02:06:12.408Z,51.179203
2023-05-19T02:07:12.428Z,51.179230
2023-05-19T02:08:12.416Z,51.179222
2023-05-19T02:09:12.388Z,51.179249
2023-05-19T02:10:12.374Z,51.179234
2023-05-19T02:11:12.364Z,51.179222
2023-05-19T02:12:12.384Z,51.179276
2023-05-19T02:13:12.374Z,51.179268
2023-05-19T02:14:12.321Z,51.179283
2023-05-19T02:15:12.318Z,51.179302
2023-05-19T02:16:12.368Z,51.179287
2023-05-19T02:17:12.326Z,51.179260
2023-05-19T02:18:12.278Z,51.179211
2023-05-19T02:19:12.384Z,51.179203
2023-05-19T02:20:12.298Z,51.179195
2023-05-19T02:21:12.299Z,51.179230
2023-05-19T02:22:12.288Z,51.179234
2023-05-19T02:23:12.278Z,51.179234
2023-05-19T02:24:12.209Z,51.179234
2023-05-19T02:25:12.238Z,51.179161
2023-05-19T02:26:12.212Z,51.179226
2023-05-19T02:27:12.254Z,51.179253
2023-05-19T02:28:12.151Z,51.179226
2023-05-19T02:29:12.185Z,51.179268
2023-05-19T02:30:12.141Z,51.179249
2023-05-19T02:31:12.193Z,51.179222
2023-05-19T02:32:12.238Z,51.179180
2023-05-19T02:33:12.151Z,51.179180
2023-05-19T02:34:12.111Z,51.179207
2023-05-19T02:35:12.116Z,51.179157
2023-05-19T02:36:12.128Z,51.179173
2023-05-19T02:37:12.087Z,51.179222
2023-05-19T02:38:12.107Z,51.179237
2023-05-19T02:39:12.058Z,51.179249
2023-05-19T02:40:12.054Z,51.179218
2023-05-19T02:41:12.033Z,51.179226
2023-05-19T02:42:12.076Z,51.179260
2023-05-19T02:43:12.035Z,51.179260
2023-05-19T02:44:11.979Z,51.179222
2023-05-19T02:45:12.021Z,51.179230
2023-05-19T02:46:12.106Z,51.179253
2023-05-19T02:47:11.999Z,51.179268
2023-05-19T02:48:12.046Z,51.179256
2023-05-19T02:49:11.965Z,51.179253
2023-05-19T02:50:11.958Z,51.179241
2023-05-19T02:51:11.994Z,51.179234
2023-05-19T02:52:11.967Z,51.179226
2023-05-19T02:53:11.940Z,51.179214
2023-05-19T02:54:11.890Z,51.179199
2023-05-19T02:55:11.919Z,51.179222
2023-05-19T02:56:11.941Z,51.179245
2023-05-19T02:57:11.889Z,51.179253
2023-05-19T02:58:11.883Z,51.179249
2023-05-19T02:59:11.854Z,51.179226
2023-05-19T03:00:11.859Z,51.179230
2023-05-19T03:01:11.825Z,51.179241
2023-05-19T03:02:12.015Z,51.179218
2023-05-19T03:03:11.858Z,51.179214
2023-05-19T03:04:11.796Z,51.179218
2023-05-19T03:05:11.787Z,51.179222
2023-05-19T03:06:11.816Z,51.179234
2023-05-19T03:07:11.857Z,51.179192
2023-05-19T03:08:11.773Z,51.179203
2023-05-19T03:09:11.852Z,51.179203
2023-05-19T03:10:12.761Z,51.179214
2023-05-19T03:11:11.751Z,51.179249
2023-05-19T03:12:11.762Z,51.179245
2023-05-19T03:13:11.712Z,51.179253
2023-05-19T03:14:11.766Z,51.179249
2023-05-19T03:15:11.680Z,51.179237
2023-05-19T03:16:11.821Z,51.179253
2023-05-19T03:17:11.703Z,51.179253
2023-05-19T03:18:11.671Z,51.179249
2023-05-19T03:19:11.679Z,51.179276
2023-05-19T03:20:11.732Z,51.179253
2023-05-19T03:21:11.693Z,51.179234
2023-05-19T03:22:11.615Z,51.179253
2023-05-19T03:23:11.641Z,51.179264
2023-05-19T03:24:11.602Z,51.179245
2023-05-19T03:25:11.580Z,51.179249
2023-05-19T03:26:11.613Z,51.179253
2023-05-19T03:27:11.570Z,51.179245
2023-05-19T03:28:11.545Z,51.179234
2023-05-19T03:29:11.567Z,51.179230
2023-05-19T03:30:11.591Z,51.179245
2023-05-19T03:31:11.560Z,51.179260
2023-05-19T03:32:11.537Z,51.179256
2023-05-19T03:33:11.733Z,51.179264
2023-05-19T03:34:11.512Z,51.179264
2023-05-19T03:35:11.526Z,51.179253
2023-05-19T03:36:11.496Z,51.179226
2023-05-19T03:37:11.502Z,51.179195
2023-05-19T03:38:11.443Z,51.179207
2023-05-19T03:39:11.490Z,51.179226
2023-05-19T03:40:11.459Z,51.179256
2023-05-19T03:41:11.422Z,51.179234
2023-05-19T03:42:11.468Z,51.179211
2023-05-19T03:43:11.500Z,51.179207
2023-05-19T03:44:11.379Z,51.179211
2023-05-19T03:45:11.385Z,51.179214
2023-05-19T03:46:12.473Z,51.179207
2023-05-19T03:47:11.364Z,51.179249
2023-05-19T03:48:11.457Z,51.179268
2023-05-19T03:49:11.346Z,51.179230
2023-05-19T03:50:11.395Z,51.179169
2023-05-19T03:51:11.355Z,51.179176
2023-05-19T03:52:11.331Z,51.179199
2023-05-19T03:53:11.353Z,51.179218
2023-05-19T03:54:11.316Z,51.179226
2023-05-19T03:55:11.307Z,51.179203
2023-05-19T03:56:11.252Z,51.179169
2023-05-19T03:57:11.347Z,51.179169
2023-05-19T03:58:11.235Z,51.179195
2023-05-19T03:59:11.257Z,51.179169
2023-05-19T04:00:11.296Z,51.179211
2023-05-19T04:01:11.280Z,51.179226
2023-05-19T04:02:11.331Z,51.179188
2023-05-19T04:03:11.284Z,51.179203
2023-05-19T04:04:12.236Z,51.179226
2023-05-19T04:05:11.157Z,51.179230
2023-05-19T04:06:11.211Z,51.179218
2023-05-19T04:07:11.175Z,51.179230
2023-05-19T04:08:11.112Z,51.179256
2023-05-19T04:09:11.134Z,51.179249
2023-05-19T04:10:11.123Z,51.179245
2023-05-19T04:11:11.127Z,51.179260
2023-05-19T04:12:11.080Z,51.179241
2023-05-19T04:13:11.085Z,51.179237
2023-05-19T04:14:11.052Z,51.179249
2023-05-19T04:15:11.082Z,51.179249
2023-05-19T04:16:11.127Z,51.179245
2023-05-19T04:17:11.043Z,51.179241
2023-05-19T04:18:11.052Z,51.179184
2023-05-19T04:19:11.071Z,51.179184
2023-05-19T04:20:11.037Z,51.179222
2023-05-19T04:21:10.988Z,51.179237
2023-05-19T04:22:11.024Z,51.179245
2023-05-19T04:23:10.976Z,51.179230
2023-05-19T04:24:10.957Z,51.179230
2023-05-19T04:25:10.973Z,51.179241
2023-05-19T04:26:10.981Z,51.179222
2023-05-19T04:27:10.939Z,51.179218
2023-05-19T04:28:10.933Z,51.179276
2023-05-19T04:29:10.938Z,51.179298
2023-05-19T04:30:10.907Z,51.179298
2023-05-19T04:31:11.092Z,51.179321
2023-05-19T04:32:10.894Z,51.179230
2023-05-19T04:33:10.978Z,51.179207
2023-05-19T04:34:10.866Z,51.179226
2023-05-19T04:35:10.943Z,51.179249
2023-05-19T04:36:10.862Z,51.179253
2023-05-19T04:37:10.824Z,51.179283
2023-05-19T04:38:10.858Z,51.179268
2023-05-19T04:39:10.813Z,51.179268
2023-05-19T04:40:10.801Z,51.179249
2023-05-19T04:41:10.807Z,51.179260
2023-05-19T04:42:10.836Z,51.179234
2023-05-19T04:43:10.784Z,51.179192
2023-05-19T04:44:10.754Z,51.179245
2023-05-19T04:45:10.831Z,51.179253
2023-05-19T04:46:12.463Z,51.179276
2023-05-19T04:47:11.931Z,51.179260
2023-05-19T04:48:10.750Z,51.179264
2023-05-19T04:49:10.702Z,51.179192
2023-05-19T04:50:11.724Z,51.179142
2023-05-19T04:51:10.689Z,51.179165
2023-05-19T04:52:10.726Z,51.179249
2023-05-19T04:53:10.676Z,51.179295
2023-05-19T04:54:10.657Z,51.179291
2023-05-19T04:55:10.684Z,51.179264
2023-05-19T04:56:10.681Z,51.179241
2023-05-19T04:57:10.634Z,51.179268
2023-05-19T04:58:10.675Z,51.179291
2023-05-19T04:59:10.611Z,51.179272
2023-05-19T05:00:10.654Z,51.179245
2023-05-19T05:01:10.565Z,51.179256
2023-05-19T05:02:10.723Z,51.179276
2023-05-19T05:03:10.610Z,51.179253
2023-05-19T05:04:10.676Z,51.179264
2023-05-19T05:05:10.560Z,51.179272
2023-05-19T05:06:10.607Z,51.179237
2023-05-19T05:07:10.552Z,51.179195
2023-05-19T05:08:10.518Z,51.179241
2023-05-19T05:09:10.518Z,51.179272
2023-05-19T05:10:10.496Z,51.179256
2023-05-19T05:11:10.469Z,51.179230
2023-05-19T05:12:10.599Z,51.179283
2023-05-19T05:13:11.827Z,51.179279
2023-05-19T05:14:11.426Z,51.179214
2023-05-19T05:15:10.444Z,51.179211
2023-05-19T05:16:10.535Z,51.179142
2023-05-19T05:17:10.424Z,51.179245
2023-05-19T05:18:10.490Z,51.179249
2023-05-19T05:19:10.430Z,51.179214
2023-05-19T05:20:10.400Z,51.179157
2023-05-19T05:21:10.403Z,51.179188
2023-05-19T05:22:10.379Z,51.179260
2023-05-19T05:23:10.349Z,51.179314
2023-05-19T05:24:10.317Z,51.179329
2023-05-19T05:25:10.328Z,51.179310
2023-05-19T05:26:10.354Z,51.179337
2023-05-19T05:27:10.466Z,51.179333
2023-05-19T05:28:10.275Z,51.179295
2023-05-19T05:29:10.285Z,51.179276
2023-05-19T05:30:10.318Z,51.179256
2023-05-19T05:31:10.258Z,51.179253
2023-05-19T05:32:10.248Z,51.179226
2023-05-19T05:33:10.429Z,51.179207
2023-05-19T05:34:10.208Z,51.179245
2023-05-19T05:35:10.254Z,51.179279
2023-05-19T05:36:10.253Z,51.179245
2023-05-19T05:37:10.220Z,51.179222
2023-05-19T05:38:10.288Z,51.179195
2023-05-19T05:39:10.175Z,51.179218
2023-05-19T05:40:10.221Z,51.179226
2023-05-19T05:41:10.156Z,51.179256
2023-05-19T05:42:10.178Z,51.179256
2023-05-19T05:43:10.147Z,51.179310
2023-05-19T05:44:10.183Z,51.179306
2023-05-19T05:45:10.101Z,51.179291
2023-05-19T05:46:10.180Z,51.179287
2023-05-19T05:47:10.088Z,51.179272
2023-05-19T05:48:10.110Z,51.179283
2023-05-19T05:49:10.105Z,51.179195
2023-05-19T05:50:10.061Z,51.179195
2023-05-19T05:51:10.088Z,51.179234
2023-05-19T05:52:10.095Z,51.179256
2023-05-19T05:53:10.047Z,51.179249
2023-05-19T05:54:10.004Z,51.179264
2023-05-19T05:55:10.053Z,51.179268
2023-05-19T05:56:10.033Z,51.179272
2023-05-19T05:57:10.026Z,51.179256
2023-05-19T05:58:09.981Z,51.179245
2023-05-19T05:59:09.972Z,51.179260
2023-05-19T06:00:09.985Z,51.179256
2023-05-19T06:01:09.979Z,51.179260
2023-05-19T06:02:10.046Z,51.179218
2023-05-19T06:03:10.306Z,51.179214
2023-05-19T06:04:09.930Z,51.179211
2023-05-19T06:05:09.930Z,51.179237
2023-05-19T06:06:09.936Z,51.179253
2023-05-19T06:07:09.907Z,51.179253
2023-05-19T06:08:09.868Z,51.179256
2023-05-19T06:09:09.855Z,51.179260
2023-05-19T06:10:09.971Z,51.179291
2023-05-19T06:11:09.877Z,51.179256
2023-05-19T06:12:09.833Z,51.179241
2023-05-19T06:13:09.824Z,51.179222
2023-05-19T06:14:09.793Z,51.179226
2023-05-19T06:15:09.804Z,51.179245
2023-05-19T06:16:10.021Z,51.179234
2023-05-19T06:17:09.837Z,51.179222
2023-05-19T06:18:09.791Z,51.179230
2023-05-19T06:19:09.847Z,51.179264
2023-05-19T06:20:09.772Z,51.179260
2023-05-19T06:21:09.716Z,51.179234
2023-05-19T06:22:09.765Z,51.179218
2023-05-19T06:23:09.719Z,51.179180
2023-05-19T06:24:09.681Z,51.179161
2023-05-19T06:25:09.696Z,51.179188
2023-05-19T06:26:09.812Z,51.179131
2023-05-19T06:27:09.664Z,51.179108
2023-05-19T06:28:09.668Z,51.179142
2023-05-19T06:29:09.720Z,51.179192
2023-05-19T06:30:09.644Z,51.179157
2023-05-19T06:31:09.659Z,51.179161
2023-05-19T06:32:09.622Z,51.179195
2023-05-19T06:33:09.672Z,51.179214
2023-05-19T06:34:09.632Z,51.179214
2023-05-19T06:35:09.665Z,51.179214
2023-05-19T06:36:09.640Z,51.179230
2023-05-19T06:37:09.560Z,51.179207
2023-05-19T06:38:09.626Z,51.179264
2023-05-19T06:39:09.528Z,51.179268
2023-05-19T06:40:09.526Z,51.179241
2023-05-19T06:41:09.535Z,51.179218
2023-05-19T06:42:09.594Z,51.179256
2023-05-19T06:43:09.484Z,51.179256
2023-05-19T06:44:09.573Z,51.179218
2023-05-19T06:45:09.445Z,51.179188
2023-05-19T06:46:09.463Z,51.179226
2023-05-19T06:47:09.499Z,51.179230
2023-05-19T06:48:09.482Z,51.179230
2023-05-19T06:49:09.465Z,51.179241
2023-05-19T06:50:09.434Z,51.179211
2023-05-19T06:51:09.404Z,51.179222
2023-05-19T06:52:09.380Z,51.179218
2023-05-19T06:53:09.444Z,51.179214
2023-05-19T06:54:09.373Z,51.179161
2023-05-19T06:55:09.366Z,51.179123
2023-05-19T06:56:09.354Z,51.179119
2023-05-19T06:57:09.349Z,51.179142
2023-05-19T06:58:09.429Z,51.179176
2023-05-19T06:59:09.305Z,51.179237
2023-05-19T07:00:09.348Z,51.179211
2023-05-19T07:01:09.415Z,51.179184
2023-05-19T07:02:09.300Z,51.179188
2023-05-19T07:03:09.376Z,51.179188
2023-05-19T07:04:09.284Z,51.179146
2023-05-19T07:05:09.359Z,51.179169
2023-05-19T07:06:09.245Z,51.179230
2023-05-19T07:07:09.282Z,51.179195
2023-05-19T07:08:09.264Z,51.179226
2023-05-19T07:09:09.183Z,51.179241
2023-05-19T07:10:09.233Z,51.179226
2023-05-19T07:11:09.165Z,51.179203
2023-05-19T07:12:09.125Z,51.179192
2023-05-19T07:13:09.212Z,51.179188
2023-05-19T07:14:09.170Z,51.179184
2023-05-19T07:15:09.126Z,51.179192
2023-05-19T07:16:09.131Z,51.179195
2023-05-19T07:17:09.174Z,51.179184
2023-05-19T07:18:09.143Z,51.179195
2023-05-19T07:19:09.122Z,51.179203
2023-05-19T07:20:09.065Z,51.179161
2023-05-19T07:21:09.073Z,51.179161
2023-05-19T07:22:09.123Z,51.179146
2023-05-19T07:23:09.061Z,51.179169
2023-05-19T07:24:09.065Z,51.179153
2023-05-19T07:25:08.997Z,51.179173
2023-05-19T07:26:09.111Z,51.179165
2023-05-19T07:27:09.097Z,51.179184
2023-05-19T07:28:08.961Z,51.179180
2023-05-19T07:29:09.007Z,51.179207
2023-05-19T07:30:08.987Z,51.179192
2023-05-19T07:31:08.952Z,51.179192
2023-05-19T07:32:08.927Z,51.179195
2023-05-19T07:33:09.120Z,51.179222
2023-05-19T07:34:08.984Z,51.179203
2023-05-19T07:35:08.967Z,51.179180
2023-05-19T07:36:08.882Z,51.179203
2023-05-19T07:37:08.919Z,51.179218
2023-05-19T07:38:08.885Z,51.179199
2023-05-19T07:39:08.999Z,51.179173
2023-05-19T07:40:08.817Z,51.179195
2023-05-19T07:41:08.834Z,51.179203
2023-05-19T07:42:08.831Z,51.179199
2023-05-19T07:43:08.932Z,51.179176
2023-05-19T07:44:08.799Z,51.179138
2023-05-19T07:45:08.801Z,51.179165
2023-05-19T07:46:08.857Z,51.179173
2023-05-19T07:47:08.779Z,51.179161
2023-05-19T07:48:08.800Z,51.179161
2023-05-19T07:49:08.774Z,51.179134
2023-05-19T07:50:08.744Z,51.179127
2023-05-19T07:51:08.749Z,51.179142
2023-05-19T07:52:08.784Z,51.179146
2023-05-19T07:53:08.696Z,51.179115
2023-05-19T07:54:08.727Z,51.179100
2023-05-19T07:55:08.711Z,51.179180
2023-05-19T07:56:08.717Z,51.179146
2023-05-19T07:57:08.672Z,51.179111
2023-05-19T07:58:08.623Z,51.179134
2023-05-19T07:59:08.686Z,51.179142
2023-05-19T08:00:08.762Z,51.179184
2023-05-19T08:01:08.624Z,51.179283
2023-05-19T08:02:08.833Z,51.179371
2023-05-19T08:03:08.713Z,51.179291
2023-05-19T08:04:11.009Z,51.179173
2023-05-19T08:05:08.590Z,51.179207
2023-05-19T08:06:08.568Z,51.179230
2023-05-19T08:07:08.689Z,51.179241
2023-05-19T08:08:08.648Z,51.179157
2023-05-19T08:09:08.523Z,51.179276
2023-05-19T08:10:08.648Z,51.179344
2023-05-19T08:11:08.516Z,51.179287
2023-05-19T08:12:08.532Z,51.179089
2023-05-19T08:13:08.563Z,51.179153
2023-05-19T08:14:08.499Z,51.179249
2023-05-19T08:15:08.482Z,51.179260
2023-05-19T08:16:08.588Z,51.179249
2023-05-19T08:17:08.462Z,51.179234
2023-05-19T08:18:08.593Z,51.179268
2023-05-19T08:19:08.571Z,51.179249
2023-05-19T08:20:08.637Z,51.179287
2023-05-19T08:21:08.514Z,51.179306
2023-05-19T08:22:08.441Z,51.179264
2023-05-19T08:23:08.401Z,51.179249
2023-05-19T08:24:08.391Z,51.179295
2023-05-19T08:25:08.379Z,51.179272
2023-05-19T08:26:08.373Z,51.179256
2023-05-19T08:27:08.364Z,51.179268
2023-05-19T08:28:08.385Z,51.179256
2023-05-19T08:29:08.331Z,51.179249
2023-05-19T08:30:08.371Z,51.179256
2023-05-19T08:31:08.385Z,51.179226
2023-05-19T08:32:09.299Z,51.179276
2023-05-19T08:33:08.317Z,51.179302
2023-05-19T08:34:08.287Z,51.179241
2023-05-19T08:35:08.324Z,51.179195
2023-05-19T08:36:08.255Z,51.179169
2023-05-19T08:37:08.329Z,51.179169
2023-05-19T08:38:08.243Z,51.179169
2023-05-19T08:39:08.306Z,51.179211
2023-05-19T08:40:08.222Z,51.179218
2023-05-19T08:41:08.220Z,51.179226
2023-05-19T08:42:08.229Z,51.179214
2023-05-19T08:43:08.176Z,51.179207
2023-05-19T08:44:08.189Z,51.179218
2023-05-19T08:45:08.160Z,51.179218
2023-05-19T08:46:08.386Z,51.179188
2023-05-19T08:47:08.307Z,51.179169
2023-05-19T08:48:08.166Z,51.179161
2023-05-19T08:49:08.105Z,51.179184
2023-05-19T08:50:08.150Z,51.179214
2023-05-19T08:51:08.102Z,51.179253
2023-05-19T08:52:08.158Z,51.179260
2023-05-19T08:53:15.092Z,51.179287
2023-05-19T08:54:10.094Z,51.179295
2023-05-19T08:55:08.105Z,51.179253
2023-05-19T08:56:08.099Z,51.179230
2023-05-19T08:57:08.150Z,51.179195
2023-05-19T08:58:08.049Z,51.179188
2023-05-19T08:59:08.076Z,51.179222
2023-05-19T09:00:08.037Z,51.179249
2023-05-19T09:01:08.032Z,51.179241
2023-05-19T09:02:08.032Z,51.179272
2023-05-19T09:04:09.069Z,51.179253
2023-05-19T09:05:08.046Z,51.179218
2023-05-19T09:06:08.087Z,51.179192
2023-05-19T09:07:07.913Z,51.179230
2023-05-19T09:08:07.939Z,51.179276
2023-05-19T09:09:07.958Z,51.179276
2023-05-19T09:10:07.932Z,51.179279
2023-05-19T09:11:07.870Z,51.179276
2023-05-19T09:12:07.852Z,51.179295
2023-05-19T09:13:07.851Z,51.179287
2023-05-19T09:14:07.915Z,51.179279
2023-05-19T09:15:07.865Z,51.179276
2023-05-19T09:16:07.828Z,51.179234
2023-05-19T09:17:07.866Z,51.179234
2023-05-19T09:18:07.977Z,51.179234
2023-05-19T09:19:07.856Z,51.179226
2023-05-19T09:20:07.788Z,51.179226
2023-05-19T09:21:07.756Z,51.179237
2023-05-19T09:22:07.846Z,51.179207
2023-05-19T09:23:07.779Z,51.179245
2023-05-19T09:24:07.753Z,51.179241
2023-05-19T09:25:07.736Z,51.179245
2023-05-19T09:26:08.158Z,51.179234
2023-05-19T09:27:07.715Z,51.179207
2023-05-19T09:28:07.780Z,51.179222
2023-05-19T09:29:07.782Z,51.179207
2023-05-19T09:30:07.685Z,51.179188
2023-05-19T09:31:07.665Z,51.179173
2023-05-19T09:32:07.781Z,51.179157
2023-05-19T09:33:07.768Z,51.179169
2023-05-19T09:34:07.690Z,51.179180
2023-05-19T09:35:07.686Z,51.179184
2023-05-19T09:36:07.704Z,51.179176
2023-05-19T09:37:07.631Z,51.179173
2023-05-19T09:38:07.623Z,51.179188
2023-05-19T09:39:07.674Z,51.179203
2023-05-19T09:40:07.607Z,51.179207
2023-05-19T09:41:07.586Z,51.179222
2023-05-19T09:42:07.531Z,51.179211
2023-05-19T09:43:07.539Z,51.179176
2023-05-19T09:44:07.617Z,51.179165
2023-05-19T09:45:07.519Z,51.179161
2023-05-19T09:46:07.672Z,51.179165
2023-05-19T09:47:07.470Z,51.179195
2023-05-19T09:48:07.637Z,51.179253
2023-05-19T09:49:07.519Z,51.179237
2023-05-19T09:50:07.529Z,51.179211
2023-05-19T09:51:07.522Z,51.179195
2023-05-19T09:52:07.414Z,51.179199
2023-05-19T09:53:07.470Z,51.179199
2023-05-19T09:54:07.541Z,51.179226
2023-05-19T09:55:07.412Z,51.179256
2023-05-19T09:56:07.399Z,51.179222
2023-05-19T09:57:08.522Z,51.179218
2023-05-19T09:58:08.348Z,51.179207
2023-05-19T09:59:08.418Z,51.179218
2023-05-19T10:00:07.352Z,51.179199
2023-05-19T10:01:07.444Z,51.179211
2023-05-19T10:02:07.325Z,51.179230
2023-05-19T10:03:07.403Z,51.179237
2023-05-19T10:04:07.351Z,51.179237
2023-05-19T10:05:07.385Z,51.179245
2023-05-19T10:06:07.295Z,51.179245
2023-05-19T10:07:07.364Z,51.179249
2023-05-19T10:08:07.309Z,51.179234
2023-05-19T10:09:07.277Z,51.179226
2023-05-19T10:10:07.340Z,51.179211
2023-05-19T10:11:07.256Z,51.179264
2023-05-19T10:12:07.288Z,51.179253
2023-05-19T10:13:07.236Z,51.179222
2023-05-19T10:14:07.236Z,51.179214
2023-05-19T10:15:07.207Z,51.179211
2023-05-19T10:16:07.247Z,51.179214
2023-05-19T10:17:08.195Z,51.179192
2023-05-19T10:18:07.219Z,51.179218
2023-05-19T10:19:07.209Z,51.179211
2023-05-19T10:20:07.166Z,51.179230
2023-05-19T10:21:07.183Z,51.179222
2023-05-19T10:22:07.176Z,51.179203
2023-05-19T10:23:07.196Z,51.179214
2023-05-19T10:24:07.237Z,51.179211
2023-05-19T10:25:07.196Z,51.179184
2023-05-19T10:26:07.120Z,51.179195
2023-05-19T10:27:07.087Z,51.179218
2023-05-19T10:28:07.267Z,51.179249
2023-05-19T10:29:07.072Z,51.179279
2023-05-19T10:30:08.808Z,51.179295
2023-05-19T10:31:07.139Z,51.179165
2023-05-19T10:32:07.182Z,51.179173
2023-05-19T10:33:07.064Z,51.179203
2023-05-19T10:34:07.152Z,51.179226
2023-05-19T10:35:06.946Z,51.179222
2023-05-19T10:36:07.001Z,51.179214
2023-05-19T10:37:06.999Z,51.179234
2023-05-19T10:38:06.963Z,51.179226
2023-05-19T10:39:06.915Z,51.179249
2023-05-19T10:40:07.056Z,51.179268
2023-05-19T10:41:06.929Z,51.179268
2023-05-19T10:42:06.918Z,51.179276
2023-05-19T10:43:06.926Z,51.179245
2023-05-19T10:44:06.875Z,51.179241
2023-05-19T10:45:06.919Z,51.179256
2023-05-19T10:46:07.860Z,51.179241
2023-05-19T10:47:06.948Z,51.179253
2023-05-19T10:48:06.831Z,51.179272
2023-05-19T10:49:06.854Z,51.179260
2023-05-19T10:50:06.966Z,51.179253
2023-05-19T10:51:07.133Z,51.179264
2023-05-19T10:52:06.825Z,51.179268
2023-05-19T10:53:06.896Z,51.179272
2023-05-19T10:54:06.828Z,51.179276
2023-05-19T10:55:06.853Z,51.179283
2023-05-19T10:56:06.763Z,51.179264
2023-05-19T10:57:06.745Z,51.179249
2023-05-19T10:58:06.783Z,51.179245
2023-05-19T10:59:06.752Z,51.179222
2023-05-19T11:00:06.813Z,51.179203
2023-05-19T11:01:06.795Z,51.179218
2023-05-19T11:02:06.828Z,51.179226
2023-05-19T11:03:06.887Z,51.179207
2023-05-19T11:04:06.816Z,51.179195
2023-05-19T11:05:06.733Z,51.179207
2023-05-19T11:06:06.783Z,51.179230
2023-05-19T11:07:06.766Z,51.179230
2023-05-19T11:08:06.647Z,51.179237
2023-05-19T11:09:06.654Z,51.179241
2023-05-19T11:10:06.617Z,51.179253
2023-05-19T11:11:06.597Z,51.179249
2023-05-19T11:12:06.632Z,51.179237
2023-05-19T11:13:06.886Z,51.179234
2023-05-19T11:14:06.569Z,51.179241
2023-05-19T11:15:06.547Z,51.179234
2023-05-19T11:16:06.740Z,51.179230
2023-05-19T11:17:06.708Z,51.179253
2023-05-19T11:18:06.615Z,51.179287
2023-05-19T11:19:06.558Z,51.179276
2023-05-19T11:20:06.570Z,51.179253
2023-05-19T11:21:06.562Z,51.179237
2023-05-19T11:22:06.462Z,51.179226
2023-05-19T11:23:06.518Z,51.179230
2023-05-19T11:24:06.535Z,51.179241
2023-05-19T11:25:06.534Z,51.179249